ěÝzenÝ letovÚho provozu ╚eskÚ republiky
Letiste: LKMT Aktualizace: 10.08.2022 18:04:32  UTC
 METAR LKMT 10.08. 18:00 RRA
METAR LKMT 101800Z 02007KT CAVOK 21/10 Q1024 NOSIG=
 TAF LKMT 10.08. 17:00 ...
TAF LKMT 101700Z 1018/1200 03008KT CAVOK      BECMG 1018/1020 03006KT      BECMG 1106/1108 04010KT      TEMPO 1112/1119 7000 SHRA SCT040TCU      PROB30 TEMPO 1113/1118 04016G30KT 4000 TSRA SCT030CB=